Time;durP1;ratioP1;P1;durP2;ratioP2;P2;SDS_P1;SDS_P2;PMS_P1;PMS_P2;Temp;Humidity;BMP_temperature;BMP_pressure;BME280_temperature;BME280_humidity;BME280_pressure;Samples;Min_cycle;Max_cycle;Signal;HPM_P1;HPM_P2
2023/03/02 00:02:13;;;;;;;5.15;1.00;;;;;;;;;;4997392;28;20056;-63
2023/03/02 00:04:53;;;;;;;5.22;0.73;;;;;;;;;;5049265;28;20045;-62
2023/03/02 00:07:32;;;;;;;2.47;0.85;;;;;;;;;;5049108;28;20059;-61
2023/03/02 00:10:04;;;;;;;4.85;0.82;;;;;;;;;;5016556;28;20056;-62
2023/03/02 00:12:39;;;;;;;4.05;0.90;;;;;;;;;;5049571;28;20078;-64
2023/03/02 00:15:10;;;;;;;4.80;0.95;;;;;;;;;;5016380;28;20969;-62
2023/03/02 00:17:40;;;;;;;3.63;0.82;;;;;;;;;;5049680;28;20512;-62
2023/03/02 00:20:11;;;;;;;5.65;1.20;;;;;;;;;;5049669;28;20057;-62
2023/03/02 00:22:50;;;;;;;5.40;1.00;;;;;;;;;;5043086;28;20069;-62
2023/03/02 00:25:20;;;;;;;4.38;1.00;;;;;;;;;;5017144;28;20053;-64
2023/03/02 00:27:50;;;;;;;6.60;1.08;;;;;;;;;;4950358;28;20140;-62
2023/03/02 00:30:23;;;;;;;6.10;1.88;;;;;;;;;;4941848;28;20059;-63
2023/03/02 00:32:57;;;;;;;8.57;1.30;;;;;;;;;;4911479;28;20044;-63
2023/03/02 00:35:44;;;;;;;5.72;1.08;;;;;;;;;;4932731;28;20051;-62
2023/03/02 00:38:20;;;;;;;7.82;1.23;;;;;;;;;;4930208;29;20070;-63
2023/03/02 00:40:52;;;;;;;3.45;1.05;;;;;;;;;;4916672;29;20048;-63
2023/03/02 00:43:26;;;;;;;5.43;1.52;;;;;;;;;;4870186;29;20051;-62
2023/03/02 00:46:07;;;;;;;4.40;1.35;;;;;;;;;;4896569;29;20068;-62
2023/03/02 00:48:37;;;;;;;5.40;1.13;;;;;;;;;;4931582;29;20099;-62
2023/03/02 00:51:07;;;;;;;4.50;1.55;;;;;;;;;;4915514;29;20072;-63
2023/03/02 00:53:40;;;;;;;4.38;1.13;;;;;;;;;;4931855;29;20060;-63
2023/03/02 00:56:12;;;;;;;6.00;1.30;;;;;;;;;;4931442;29;20062;-63
2023/03/02 00:58:47;;;;;;;4.22;1.00;;;;;;;;;;4879094;29;20413;-62
2023/03/02 01:01:17;;;;;;;3.75;1.15;;;;;;;;;;4844024;29;20662;-62
2023/03/02 01:03:51;;;;;;;6.45;1.13;;;;;;;;;;4906738;29;20056;-62
2023/03/02 01:06:24;;;;;;;5.55;1.20;;;;;;;;;;4897526;29;20491;-63
2023/03/02 01:08:54;;;;;;;6.97;1.33;;;;;;;;;;4928729;29;20400;-63
2023/03/02 01:11:24;;;;;;;8.82;1.52;;;;;;;;;;4899408;29;20039;-62
2023/03/02 01:13:54;;;;;;;5.18;1.17;;;;;;;;;;4912413;29;20079;-63
2023/03/02 01:16:27;;;;;;;5.57;1.38;;;;;;;;;;4874071;29;20484;-63
2023/03/02 01:18:59;;;;;;;3.85;1.13;;;;;;;;;;4859812;29;20061;-63
2023/03/02 01:21:29;;;;;;;7.60;1.17;;;;;;;;;;4874873;29;20061;-63
2023/03/02 01:24:00;;;;;;;10.02;1.48;;;;;;;;;;4874970;29;20076;-64
2023/03/02 01:26:33;;;;;;;3.22;1.42;;;;;;;;;;4864150;29;20548;-63
2023/03/02 01:29:03;;;;;;;7.85;1.20;;;;;;;;;;4871805;29;20521;-63
2023/03/02 01:31:33;;;;;;;6.53;1.02;;;;;;;;;;4855907;29;20058;-63
2023/03/02 01:34:03;;;;;;;9.80;1.52;;;;;;;;;;4856269;29;20062;-63
2023/03/02 01:36:38;;;;;;;;;;;;;;;;;;4856779;29;20133;-63
2023/03/02 01:39:08;;;;;;;3.85;0.90;;;;;;;;;;4892055;29;19923;-64
2023/03/02 01:41:37;;;;;;;6.88;1.52;;;;;;;;;;4931830;29;20056;-63
2023/03/02 01:44:36;;;;;;;6.45;1.15;;;;;;;;;;4885143;29;20053;-63
2023/03/02 01:47:38;;;;;;;7.32;1.30;;;;;;;;;;4931115;28;20518;-63
2023/03/02 01:50:22;;;;;;;2.72;0.90;;;;;;;;;;4915817;29;20400;-63
2023/03/02 01:52:56;;;;;;;3.22;1.23;;;;;;;;;;4915216;29;20051;-63
2023/03/02 01:55:31;;;;;;;8.10;1.55;;;;;;;;;;4896312;29;20059;-61
2023/03/02 01:58:04;;;;;;;5.43;1.17;;;;;;;;;;4915783;29;20059;-62
2023/03/02 02:00:37;;;;;;;5.85;1.30;;;;;;;;;;4915887;29;20524;-62
2023/03/02 02:03:14;;;;;;;9.38;1.90;;;;;;;;;;4900220;29;20066;-62
2023/03/02 02:05:48;;;;;;;6.22;1.33;;;;;;;;;;4947851;29;20527;-62
2023/03/02 02:08:19;;;;;;;5.13;1.20;;;;;;;;;;4915249;29;20064;-62
2023/03/02 02:10:49;;;;;;;4.05;1.10;;;;;;;;;;4915642;29;20059;-62
2023/03/02 02:13:18;;;;;;;3.90;1.33;;;;;;;;;;4934462;29;20492;-62
2023/03/02 02:15:49;;;;;;;4.00;1.20;;;;;;;;;;4934311;29;20047;-62
2023/03/02 02:18:19;;;;;;;5.35;1.27;;;;;;;;;;4953491;29;20055;-63
2023/03/02 02:20:51;;;;;;;4.70;1.52;;;;;;;;;;4928174;29;20063;-63
2023/03/02 02:23:29;;;;;;;3.72;0.75;;;;;;;;;;4896572;29;20106;-64
2023/03/02 02:26:08;;;;;;;6.03;1.42;;;;;;;;;;4915760;29;20097;-63
2023/03/02 02:29:06;;;;;;;7.10;1.85;;;;;;;;;;4934264;29;20194;-63
2023/03/02 02:31:47;;;;;;;5.95;1.48;;;;;;;;;;4880296;29;20061;-63
2023/03/02 02:34:21;;;;;;;6.57;1.67;;;;;;;;;;4896838;29;20053;-63
2023/03/02 02:37:47;;;;;;;6.78;1.63;;;;;;;;;;4858950;29;20065;-64
2023/03/02 02:40:36;;;;;;;7.28;1.60;;;;;;;;;;4877390;29;20502;-64
2023/03/02 02:43:11;;;;;;;3.58;1.02;;;;;;;;;;4858745;29;20525;-63
2023/03/02 02:45:42;;;;;;;6.63;0.93;;;;;;;;;;4858862;29;20062;-63
2023/03/02 02:48:17;;;;;;;4.95;1.20;;;;;;;;;;4828329;29;20073;-64
2023/03/02 02:50:47;;;;;;;5.28;0.95;;;;;;;;;;4850222;29;20062;-63
2023/03/02 02:53:21;;;;;;;2.80;0.80;;;;;;;;;;4840606;29;20054;-63
2023/03/02 02:55:54;;;;;;;3.80;1.40;;;;;;;;;;4821783;29;20062;-64
2023/03/02 02:58:47;;;;;;;8.05;1.20;;;;;;;;;;4785524;29;20047;-63
2023/03/02 03:01:24;;;;;;;5.60;0.98;;;;;;;;;;4818728;29;20602;-64
2023/03/02 03:03:59;;;;;;;4.18;1.02;;;;;;;;;;4783785;29;20388;-62
2023/03/02 03:06:40;;;;;;;6.18;1.75;;;;;;;;;;4836797;29;20051;-62
2023/03/02 03:09:12;;;;;;;4.97;0.93;;;;;;;;;;4793241;29;20060;-63
2023/03/02 03:11:55;;;;;;;4.38;1.00;;;;;;;;;;4817828;29;20507;-63
2023/03/02 03:14:38;;;;;;;5.03;1.15;;;;;;;;;;4803682;29;20073;-63
2023/03/02 03:17:13;;;;;;;5.28;1.27;;;;;;;;;;4811872;29;20050;-63
2023/03/02 03:19:52;;;;;;;4.65;1.13;;;;;;;;;;4850339;29;20050;-63
2023/03/02 03:22:22;;;;;;;2.72;1.10;;;;;;;;;;4914205;29;20067;-63
2023/03/02 03:24:52;;;;;;;4.68;0.82;;;;;;;;;;4914319;29;20060;-63
2023/03/02 03:27:23;;;;;;;6.82;1.25;;;;;;;;;;4933157;29;20048;-62
2023/03/02 03:29:53;;;;;;;6.25;1.45;;;;;;;;;;4914175;29;20749;-65
2023/03/02 03:32:23;;;;;;;4.90;1.08;;;;;;;;;;4898025;29;20582;-63
2023/03/02 03:34:55;;;;;;;5.97;1.00;;;;;;;;;;4876591;29;20053;-63
2023/03/02 03:37:29;;;;;;;7.40;0.70;;;;;;;;;;4894854;29;20115;-63
2023/03/02 03:39:59;;;;;;;8.07;1.42;;;;;;;;;;4843391;29;20053;-63
2023/03/02 03:42:29;;;;;;;3.78;0.82;;;;;;;;;;4808049;29;20681;-63
2023/03/02 03:45:01;;;;;;;6.63;1.10;;;;;;;;;;4818219;29;20062;-62
2023/03/02 03:47:34;;;;;;;5.18;1.20;;;;;;;;;;4824077;29;20062;-63
2023/03/02 03:50:07;;;;;;;4.63;1.10;;;;;;;;;;4864754;29;20065;-63
2023/03/02 03:52:37;;;;;;;4.93;1.58;;;;;;;;;;4892822;29;20056;-63
2023/03/02 03:55:16;;;;;;;2.63;0.82;;;;;;;;;;4908902;29;20060;-64
2023/03/02 03:57:48;;;;;;;3.88;1.23;;;;;;;;;;4879385;29;20051;-63
2023/03/02 04:00:18;;;;;;;3.17;1.10;;;;;;;;;;4894604;29;20436;-63
2023/03/02 04:03:04;;;;;;;3.05;0.82;;;;;;;;;;4848999;29;20061;-63
2023/03/02 04:05:34;;;;;;;8.18;1.73;;;;;;;;;;4849881;29;20069;-63
2023/03/02 04:08:05;;;;;;;4.07;0.73;;;;;;;;;;4852401;29;20534;-62
2023/03/02 04:10:35;;;;;;;9.73;1.42;;;;;;;;;;4840440;29;20089;-63
2023/03/02 04:13:06;;;;;;;5.63;1.00;;;;;;;;;;4864446;29;20485;-63
2023/03/02 04:15:37;;;;;;;5.75;0.93;;;;;;;;;;4875938;29;20072;-63
2023/03/02 04:18:07;;;;;;;2.30;0.73;;;;;;;;;;4863298;29;20074;-63
2023/03/02 04:20:37;;;;;;;4.28;1.13;;;;;;;;;;4907065;29;20052;-63
2023/03/02 04:23:07;;;;;;;7.90;1.60;;;;;;;;;;4928798;29;20055;-63
2023/03/02 04:25:37;;;;;;;4.38;1.13;;;;;;;;;;4916329;29;20059;-64
2023/03/02 04:28:17;;;;;;;2.67;0.93;;;;;;;;;;4926373;29;20060;-62
2023/03/02 04:30:47;;;;;;;2.58;1.00;;;;;;;;;;4941190;29;20503;-63
2023/03/02 04:33:18;;;;;;;5.43;1.23;;;;;;;;;;4947415;29;20058;-63
2023/03/02 04:35:48;;;;;;;4.68;0.88;;;;;;;;;;4939673;29;20052;-62
2023/03/02 04:38:18;;;;;;;5.30;0.88;;;;;;;;;;4951115;29;20059;-62
2023/03/02 04:40:48;;;;;;;4.68;1.20;;;;;;;;;;4951003;29;20058;-63
2023/03/02 04:43:17;;;;;;;3.65;1.10;;;;;;;;;;4951086;29;20070;-63
2023/03/02 04:45:47;;;;;;;2.88;0.80;;;;;;;;;;4941200;29;20078;-63
2023/03/02 04:48:17;;;;;;;3.17;1.00;;;;;;;;;;4900262;29;20543;-62
2023/03/02 04:50:47;;;;;;;4.57;0.95;;;;;;;;;;4915759;29;20061;-63
2023/03/02 04:53:17;;;;;;;1.52;0.93;;;;;;;;;;4931770;29;20535;-62
2023/03/02 04:55:47;;;;;;;3.13;1.02;;;;;;;;;;4916415;29;20070;-62
2023/03/02 04:58:17;;;;;;;2.63;1.02;;;;;;;;;;4932481;28;20519;-62
2023/03/02 05:00:46;;;;;;;5.07;0.90;;;;;;;;;;4970848;28;20061;-63
2023/03/02 05:03:16;;;;;;;2.60;1.02;;;;;;;;;;4976344;28;20049;-67
2023/03/02 05:05:46;;;;;;;6.28;1.92;;;;;;;;;;4976756;28;20058;-62
2023/03/02 05:08:15;;;;;;;3.97;0.93;;;;;;;;;;5009243;28;20054;-63
2023/03/02 05:10:45;;;;;;;5.25;1.33;;;;;;;;;;5009355;28;20117;-64
2023/03/02 05:13:15;;;;;;;6.82;1.05;;;;;;;;;;5008331;28;20060;-62
2023/03/02 05:15:45;;;;;;;4.43;1.05;;;;;;;;;;5009254;28;20418;-63
2023/03/02 05:18:14;;;;;;;5.65;0.85;;;;;;;;;;5037414;28;20546;-61
2023/03/02 05:20:44;;;;;;;2.83;0.98;;;;;;;;;;5008636;28;20058;-62
2023/03/02 05:23:22;;;;;;;3.28;1.02;;;;;;;;;;5009055;28;20057;-62
2023/03/02 05:25:55;;;;;;;3.65;1.02;;;;;;;;;;4992825;28;20061;-62
2023/03/02 05:28:25;;;;;;;2.10;1.02;;;;;;;;;;5009314;28;20109;-62
2023/03/02 05:30:57;;;;;;;3.75;1.15;;;;;;;;;;5008654;28;20066;-63
2023/03/02 05:33:27;;;;;;;2.65;1.30;;;;;;;;;;5009059;28;20486;-61
2023/03/02 05:35:57;;;;;;;4.68;1.15;;;;;;;;;;4992561;28;20058;-63
2023/03/02 05:38:29;;;;;;;3.13;1.02;;;;;;;;;;5008914;28;20049;-62
2023/03/02 05:41:00;;;;;;;4.28;0.93;;;;;;;;;;4992926;28;20452;-62
2023/03/02 05:43:30;;;;;;;3.20;1.15;;;;;;;;;;5009113;28;20065;-62
2023/03/02 05:46:01;;;;;;;4.97;1.02;;;;;;;;;;5009027;28;20061;-62
2023/03/02 05:48:31;;;;;;;2.47;1.30;;;;;;;;;;4992857;28;20549;-63
2023/03/02 05:51:01;;;;;;;3.28;0.93;;;;;;;;;;4995433;28;20053;-62
2023/03/02 05:53:31;;;;;;;4.38;0.85;;;;;;;;;;5028580;28;20060;-62
2023/03/02 05:56:00;;;;;;;4.03;1.08;;;;;;;;;;5028147;28;20053;-63
2023/03/02 05:58:31;;;;;;;3.97;1.95;;;;;;;;;;5028486;28;20490;-63
2023/03/02 06:01:01;;;;;;;2.83;1.63;;;;;;;;;;5028406;28;20048;-62
2023/03/02 06:03:32;;;;;;;2.13;0.82;;;;;;;;;;5028527;28;20072;-62
2023/03/02 06:06:02;;;;;;;4.95;1.40;;;;;;;;;;5028409;28;20109;-62
2023/03/02 06:08:31;;;;;;;5.38;0.93;;;;;;;;;;5028141;28;20119;-64
2023/03/02 06:11:01;;;;;;;2.13;1.10;;;;;;;;;;4991805;28;20054;-62
2023/03/02 06:13:31;;;;;;;3.45;1.10;;;;;;;;;;4991723;28;20042;-62
2023/03/02 06:16:00;;;;;;;4.38;1.25;;;;;;;;;;5008585;28;20512;-64
2023/03/02 06:18:31;;;;;;;3.20;1.30;;;;;;;;;;5008821;28;20501;-62
2023/03/02 06:21:01;;;;;;;4.20;0.93;;;;;;;;;;4976313;28;20445;-63
2023/03/02 06:23:31;;;;;;;1.98;1.02;;;;;;;;;;5009623;28;20053;-65
2023/03/02 06:26:07;;;;;;;4.22;1.10;;;;;;;;;;5012245;28;20595;-63
2023/03/02 06:28:36;;;;;;;5.43;1.30;;;;;;;;;;5021704;28;20058;-62
2023/03/02 06:31:20;;;;;;;5.35;1.20;;;;;;;;;;5031481;28;20572;-63
2023/03/02 06:33:50;;;;;;;4.05;1.33;;;;;;;;;;5015633;28;20038;-64
2023/03/02 06:36:20;;;;;;;3.20;1.08;;;;;;;;;;4998541;28;20053;-63
2023/03/02 06:38:50;;;;;;;3.00;1.30;;;;;;;;;;4982933;28;20057;-62
2023/03/02 06:41:21;;;;;;;4.63;1.27;;;;;;;;;;4998779;28;20049;-63
2023/03/02 06:43:51;;;;;;;3.30;1.02;;;;;;;;;;5031839;28;20489;-62
2023/03/02 06:46:20;;;;;;;6.65;1.92;;;;;;;;;;5031405;28;20053;-62
2023/03/02 06:48:50;;;;;;;3.38;1.40;;;;;;;;;;5032750;28;20073;-62
2023/03/02 06:51:20;;;;;;;3.53;1.17;;;;;;;;;;5031085;28;20041;-66
2023/03/02 06:53:50;;;;;;;3.13;1.13;;;;;;;;;;4982512;28;20049;-62
2023/03/02 06:56:20;;;;;;;4.20;1.10;;;;;;;;;;5031285;28;20061;-63
2023/03/02 06:58:50;;;;;;;4.40;1.10;;;;;;;;;;5015372;28;20046;-62
2023/03/02 07:01:20;;;;;;;5.10;1.30;;;;;;;;;;5031090;28;20057;-63
2023/03/02 07:03:50;;;;;;;6.95;1.30;;;;;;;;;;5031682;28;20054;-63
2023/03/02 07:06:21;;;;;;;6.90;1.02;;;;;;;;;;5011362;28;20436;-63
2023/03/02 07:08:50;;;;;;;3.28;1.10;;;;;;;;;;5010858;28;20061;-62
2023/03/02 07:11:20;;;;;;;5.32;0.80;;;;;;;;;;5010994;28;20064;-63
2023/03/02 07:13:50;;;;;;;4.97;1.20;;;;;;;;;;5011265;28;20054;-65
2023/03/02 07:16:20;;;;;;;3.63;1.00;;;;;;;;;;4962397;28;20083;-63
2023/03/02 07:18:50;;;;;;;3.80;1.30;;;;;;;;;;5011454;28;20045;-62
2023/03/02 07:21:20;;;;;;;1.92;1.00;;;;;;;;;;5010608;28;20616;-63
2023/03/02 07:23:49;;;;;;;3.28;1.15;;;;;;;;;;4991437;28;20058;-64
2023/03/02 07:26:19;;;;;;;6.07;1.35;;;;;;;;;;4991542;28;20050;-64
2023/03/02 07:28:49;;;;;;;3.53;0.90;;;;;;;;;;4975444;28;20050;-63
2023/03/02 07:31:19;;;;;;;5.90;1.67;;;;;;;;;;4958940;28;20058;-62
2023/03/02 07:33:49;;;;;;;3.08;1.10;;;;;;;;;;4933404;29;20512;-62
2023/03/02 07:36:19;;;;;;;3.60;1.73;;;;;;;;;;4932716;29;20064;-63
2023/03/02 07:38:48;;;;;;;5.25;0.88;;;;;;;;;;4952358;28;20081;-63
2023/03/02 07:41:19;;;;;;;4.53;1.30;;;;;;;;;;4935834;29;20050;-63
2023/03/02 07:43:49;;;;;;;10.40;1.42;;;;;;;;;;4952670;29;20074;-62
2023/03/02 07:46:19;;;;;;;4.05;1.52;;;;;;;;;;4971466;28;20423;-63
2023/03/02 07:48:49;;;;;;;3.38;1.05;;;;;;;;;;4971565;28;20059;-64
2023/03/02 07:51:19;;;;;;;3.80;1.27;;;;;;;;;;4938956;28;20208;-62
2023/03/02 07:53:49;;;;;;;5.18;1.27;;;;;;;;;;4938965;28;20054;-63
2023/03/02 07:56:19;;;;;;;4.88;1.42;;;;;;;;;;4971568;28;20054;-63
2023/03/02 07:58:49;;;;;;;5.85;1.35;;;;;;;;;;4971505;28;20054;-63
2023/03/02 08:01:19;;;;;;;3.83;1.33;;;;;;;;;;4923730;28;20059;-62
2023/03/02 08:03:49;;;;;;;3.90;0.95;;;;;;;;;;4972612;28;20117;-63
2023/03/02 08:06:19;;;;;;;2.28;1.30;;;;;;;;;;5010517;28;20113;-62
2023/03/02 08:08:49;;;;;;;4.53;1.23;;;;;;;;;;4993675;28;20050;-62
2023/03/02 08:11:19;;;;;;;11.15;1.38;;;;;;;;;;5010080;28;20050;-63
2023/03/02 08:13:49;;;;;;;2.38;1.10;;;;;;;;;;5010180;28;20164;-62
2023/03/02 08:16:19;;;;;;;2.45;1.10;;;;;;;;;;4993599;28;20068;-64
2023/03/02 08:18:49;;;;;;;3.13;1.20;;;;;;;;;;5009650;28;20045;-63
2023/03/02 08:21:21;;;;;;;5.45;1.25;;;;;;;;;;5010178;28;20097;-62
2023/03/02 08:23:52;;;;;;;2.03;1.00;;;;;;;;;;5010105;28;20049;-62
2023/03/02 08:26:22;;;;;;;5.00;1.02;;;;;;;;;;4978171;28;20065;-62
2023/03/02 08:28:51;;;;;;;2.75;1.13;;;;;;;;;;5009717;28;20498;-63
2023/03/02 08:31:21;;;;;;;2.78;1.20;;;;;;;;;;5009701;28;20046;-64
2023/03/02 08:33:52;;;;;;;3.35;1.02;;;;;;;;;;5009729;28;20414;-63
2023/03/02 08:36:22;;;;;;;3.83;1.17;;;;;;;;;;5009781;28;20088;-62
2023/03/02 08:38:53;;;;;;;4.68;1.30;;;;;;;;;;4961064;28;20112;-62
2023/03/02 08:41:24;;;;;;;4.85;1.33;;;;;;;;;;5009599;28;20046;-63
2023/03/02 08:43:56;;;;;;;6.18;1.20;;;;;;;;;;5009889;28;20433;-63
2023/03/02 08:46:26;;;;;;;2.67;1.52;;;;;;;;;;5009418;28;20053;-63
2023/03/02 08:48:56;;;;;;;2.00;1.02;;;;;;;;;;5020397;28;20057;-62
2023/03/02 08:51:26;;;;;;;5.38;1.65;;;;;;;;;;5029983;28;20064;-62
2023/03/02 08:53:55;;;;;;;5.25;1.15;;;;;;;;;;5062003;28;20421;-63
2023/03/02 08:56:31;;;;;;;3.30;1.25;;;;;;;;;;5031908;28;20493;-62
2023/03/02 08:59:04;;;;;;;13.95;1.70;;;;;;;;;;5031715;28;20037;-63
2023/03/02 09:01:36;;;;;;;7.18;1.27;;;;;;;;;;5030099;28;20045;-63
2023/03/02 09:04:08;;;;;;;4.45;1.08;;;;;;;;;;4980541;28;20048;-63
2023/03/02 09:06:41;;;;;;;8.38;1.27;;;;;;;;;;5031636;28;20392;-63
2023/03/02 09:09:13;;;;;;;3.47;1.10;;;;;;;;;;5012443;28;20080;-62
2023/03/02 09:11:44;;;;;;;5.15;1.35;;;;;;;;;;4980826;28;20065;-64
2023/03/02 09:14:14;;;;;;;5.35;1.27;;;;;;;;;;4996998;28;20053;-63
2023/03/02 09:16:44;;;;;;;3.80;1.30;;;;;;;;;;5029084;28;20061;-62
2023/03/02 09:19:15;;;;;;;3.80;1.20;;;;;;;;;;5031186;28;20116;-62
2023/03/02 09:21:45;;;;;;;4.18;1.23;;;;;;;;;;5048533;28;20052;-62
2023/03/02 09:24:15;;;;;;;4.43;1.20;;;;;;;;;;5048636;28;20551;-62
2023/03/02 09:26:45;;;;;;;4.95;1.50;;;;;;;;;;5016381;28;20049;-63
2023/03/02 09:29:15;;;;;;;9.27;1.60;;;;;;;;;;5031977;28;20071;-65
2023/03/02 09:31:44;;;;;;;4.95;1.33;;;;;;;;;;5048483;28;20041;-66
2023/03/02 09:34:14;;;;;;;6.03;1.25;;;;;;;;;;5015289;28;20092;-63
2023/03/02 09:36:45;;;;;;;2.90;1.17;;;;;;;;;;5015329;28;20058;-63
2023/03/02 09:39:17;;;;;;;4.28;1.08;;;;;;;;;;5048746;28;20071;-64
2023/03/02 09:42:13;;;;;;;6.68;1.33;;;;;;;;;;5048510;28;20048;-63
2023/03/02 09:44:54;;;;;;;8.00;1.35;;;;;;;;;;5028185;28;20096;-63
2023/03/02 09:47:42;;;;;;;6.80;1.60;;;;;;;;;;5028630;28;20049;-64
2023/03/02 09:50:30;;;;;;;4.38;1.02;;;;;;;;;;5028444;28;20057;-64
2023/03/02 09:53:11;;;;;;;3.15;1.20;;;;;;;;;;5028458;28;20058;-64
2023/03/02 09:55:41;;;;;;;5.50;1.40;;;;;;;;;;5028915;28;20061;-63
2023/03/02 09:58:24;;;;;;;3.00;1.42;;;;;;;;;;5028566;28;20053;-64
2023/03/02 10:00:54;;;;;;;3.80;1.17;;;;;;;;;;5032629;28;20041;-63
2023/03/02 10:03:34;;;;;;;6.63;1.15;;;;;;;;;;5032397;28;20053;-63
2023/03/02 10:06:04;;;;;;;1.60;0.90;;;;;;;;;;5016112;28;20060;-63
2023/03/02 10:08:36;;;;;;;5.28;1.08;;;;;;;;;;4998973;28;20100;-65
2023/03/02 10:11:49;;;;;;;4.75;1.65;;;;;;;;;;5032230;28;20057;-63
2023/03/02 10:14:45;;;;;;;2.53;1.30;;;;;;;;;;5032379;28;20057;-64
2023/03/02 10:17:17;;;;;;;7.68;2.60;;;;;;;;;;5031826;28;20057;-63
2023/03/02 10:19:58;;;;;;;4.82;1.80;;;;;;;;;;4999329;28;20492;-63
2023/03/02 10:22:52;;;;;;;4.45;1.80;;;;;;;;;;5027392;28;20111;-64
2023/03/02 10:25:38;;;;;;;5.47;2.17;;;;;;;;;;5050572;28;20053;-63
2023/03/02 10:28:21;;;;;;;5.45;2.00;;;;;;;;;;5050608;28;20041;-63
2023/03/02 10:31:05;;;;;;;9.65;2.20;;;;;;;;;;5051456;28;20501;-65
2023/03/02 10:33:38;;;;;;;7.95;2.63;;;;;;;;;;5011805;28;20053;-64
2023/03/02 10:36:36;;;;;;;14.27;2.17;;;;;;;;;;5012333;28;20045;-64
2023/03/02 10:39:17;;;;;;;13.93;2.28;;;;;;;;;;4956433;28;20063;-63
2023/03/02 10:42:10;;;;;;;12.73;2.60;;;;;;;;;;4972568;28;20059;-63
2023/03/02 10:44:45;;;;;;;4.85;1.80;;;;;;;;;;4972540;28;20062;-63
2023/03/02 10:47:27;;;;;;;5.35;2.15;;;;;;;;;;4972537;28;20117;-64
2023/03/02 10:49:57;;;;;;;5.28;2.70;;;;;;;;;;4972960;28;20066;-64
2023/03/02 10:52:28;;;;;;;10.57;2.72;;;;;;;;;;4966507;28;20055;-64
2023/03/02 10:55:12;;;;;;;9.18;1.90;;;;;;;;;;4966743;28;20062;-63
2023/03/02 10:57:57;;;;;;;5.72;1.70;;;;;;;;;;4939797;28;20051;-63
2023/03/02 11:00:30;;;;;;;9.52;1.80;;;;;;;;;;4972565;28;20046;-64
2023/03/02 11:03:18;;;;;;;8.55;1.83;;;;;;;;;;4972033;28;20081;-67
2023/03/02 11:05:49;;;;;;;3.60;1.52;;;;;;;;;;4924153;28;20077;-64
2023/03/02 11:08:27;;;;;;;4.60;1.50;;;;;;;;;;4971696;28;20059;-65
2023/03/02 11:11:02;;;;;;;5.80;1.63;;;;;;;;;;4984748;28;20072;-64
2023/03/02 11:13:36;;;;;;;5.40;1.65;;;;;;;;;;5009094;28;20057;-64
2023/03/02 11:16:30;;;;;;;5.10;1.77;;;;;;;;;;5040149;28;20057;-62
2023/03/02 11:19:11;;;;;;;5.18;1.40;;;;;;;;;;5049290;28;20053;-62
2023/03/02 11:21:41;;;;;;;4.43;1.40;;;;;;;;;;5070644;28;20052;-61
2023/03/02 11:24:27;;;;;;;1.33;0.90;;;;;;;;;;5033773;28;20049;-62
2023/03/02 11:27:19;;;;;;;2.55;1.50;;;;;;;;;;5017715;28;20057;-62
2023/03/02 11:29:50;;;;;;;;;;;;;;;;;;5051109;28;20052;-62
2023/03/02 11:32:43;;;;;;;3.95;1.20;;;;;;;;;;5050413;28;19921;-62
2023/03/02 11:35:35;;;;;;;2.42;1.10;;;;;;;;;;4978175;28;20058;-61
2023/03/02 11:38:31;;;;;;;2.70;1.13;;;;;;;;;;5010831;28;20064;-62
2023/03/02 11:41:32;;;;;;;2.33;0.93;;;;;;;;;;5010451;28;20129;-61
2023/03/02 11:44:16;;;;;;;3.38;0.98;;;;;;;;;;4971653;28;20070;-62
2023/03/02 11:46:50;;;;;;;3.35;0.90;;;;;;;;;;4955701;28;20510;-61
2023/03/02 11:49:42;;;;;;;2.20;0.73;;;;;;;;;;4971823;28;20059;-61
2023/03/02 11:52:19;;;;;;;2.67;0.82;;;;;;;;;;4962496;28;20059;-61
2023/03/02 11:54:56;;;;;;;1.60;0.98;;;;;;;;;;4933126;29;20150;-62
2023/03/02 11:57:39;;;;;;;1.80;1.00;;;;;;;;;;4916980;29;20412;-62
2023/03/02 12:00:19;;;;;;;3.10;1.02;;;;;;;;;;4914061;29;20060;-62
2023/03/02 12:03:02;;;;;;;6.63;2.00;;;;;;;;;;4914140;29;20436;-62
2023/03/02 12:05:35;;;;;;;2.67;1.08;;;;;;;;;;4914006;29;20064;-62
2023/03/02 12:08:19;;;;;;;3.17;1.17;;;;;;;;;;4913700;29;20067;-62
2023/03/02 12:11:27;;;;;;;3.13;0.93;;;;;;;;;;4914067;29;20052;-61
2023/03/02 12:14:01;;;;;;;3.30;0.90;;;;;;;;;;4991037;28;20066;-62
2023/03/02 12:16:44;;;;;;;2.72;1.00;;;;;;;;;;4990401;28;20415;-62
2023/03/02 12:19:17;;;;;;;4.32;1.05;;;;;;;;;;4956202;28;20055;-61
2023/03/02 12:22:01;;;;;;;4.32;1.30;;;;;;;;;;5032141;28;20060;-62
2023/03/02 12:24:33;;;;;;;4.40;1.20;;;;;;;;;;5032000;28;20047;-62
2023/03/02 12:27:23;;;;;;;2.38;1.00;;;;;;;;;;5032070;28;20045;-62
2023/03/02 12:30:08;;;;;;;;;;;;;;;;;;5027509;28;20416;-62
2023/03/02 12:32:39;;;;;;;2.22;1.02;;;;;;;;;;5031770;28;19932;-62
2023/03/02 12:35:17;;;;;;;3.10;1.77;;;;;;;;;;5063306;28;20048;-62
2023/03/02 12:37:55;;;;;;;6.72;2.50;;;;;;;;;;4996909;28;20053;-63
2023/03/02 12:40:40;;;;;;;1.05;0.60;;;;;;;;;;5029840;28;20049;-61
2023/03/02 12:43:26;;;;;;;;;;;;;;;;;;5032304;28;20049;-62
2023/03/02 12:46:17;;;;;;;2.45;1.30;;;;;;;;;;5013418;28;19920;-62
2023/03/02 12:49:03;;;;;;;2.28;1.00;;;;;;;;;;5029687;28;20050;-62
2023/03/02 12:51:45;;;;;;;5.45;2.42;;;;;;;;;;5031680;28;20046;-62
2023/03/02 12:54:19;;;;;;;4.95;1.23;;;;;;;;;;5029559;28;20068;-62
2023/03/02 12:56:49;;;;;;;2.60;1.65;;;;;;;;;;5031300;28;20048;-62
2023/03/02 12:59:27;;;;;;;2.63;1.25;;;;;;;;;;5031649;28;20485;-62
2023/03/02 13:02:04;;;;;;;2.97;1.90;;;;;;;;;;5031376;28;20085;-62
2023/03/02 13:04:34;;;;;;;1.73;1.20;;;;;;;;;;5031853;28;20037;-62
2023/03/02 13:07:04;;;;;;;2.33;1.02;;;;;;;;;;5031229;28;20049;-62
2023/03/02 13:09:35;;;;;;;2.50;1.00;;;;;;;;;;4996545;28;20060;-62
2023/03/02 13:12:13;;;;;;;2.10;1.23;;;;;;;;;;5031094;28;20045;-62
2023/03/02 13:14:49;;;;;;;2.72;1.08;;;;;;;;;;5031770;28;20477;-62
2023/03/02 13:17:23;;;;;;;2.58;1.35;;;;;;;;;;5031502;28;20049;-63
2023/03/02 13:19:53;;;;;;;2.63;1.20;;;;;;;;;;4996533;28;20441;-62
2023/03/02 13:22:23;;;;;;;4.18;1.30;;;;;;;;;;5031227;28;20053;-62
2023/03/02 13:25:01;;;;;;;3.45;1.40;;;;;;;;;;5045319;28;20057;-62
2023/03/02 13:27:32;;;;;;;2.25;1.63;;;;;;;;;;5045784;28;20413;-63
2023/03/02 13:30:23;;;;;;;3.22;1.13;;;;;;;;;;5028552;28;20050;-63
2023/03/02 13:32:59;;;;;;;4.43;1.33;;;;;;;;;;5012752;28;20057;-62
2023/03/02 13:35:32;;;;;;;2.60;1.38;;;;;;;;;;5028549;28;20053;-62
2023/03/02 13:38:14;;;;;;;2.65;1.63;;;;;;;;;;5028428;28;20056;-62
2023/03/02 13:40:47;;;;;;;2.83;1.25;;;;;;;;;;4996239;28;20064;-62
2023/03/02 13:43:40;;;;;;;3.90;1.30;;;;;;;;;;5028992;28;20509;-63
2023/03/02 13:46:12;;;;;;;2.22;0.95;;;;;;;;;;5028726;28;20056;-62
2023/03/02 13:49:03;;;;;;;4.13;0.93;;;;;;;;;;5012039;28;20057;-62
2023/03/02 13:51:41;;;;;;;2.97;0.65;;;;;;;;;;5028332;28;20053;-63
2023/03/02 13:54:27;;;;;;;0.80;0.50;;;;;;;;;;4995777;28;20057;-63
2023/03/02 13:57:02;;;;;;;0.90;0.30;;;;;;;;;;4976025;28;20046;-62
2023/03/02 13:59:35;;;;;;;0.68;0.38;;;;;;;;;;4976434;28;20167;-62
2023/03/02 14:02:28;;;;;;;3.10;0.32;;;;;;;;;;5008969;28;20060;-63
2023/03/02 14:04:58;;;;;;;1.88;0.35;;;;;;;;;;4976430;28;20065;-62
2023/03/02 14:07:29;;;;;;;2.85;1.17;;;;;;;;;;5016697;28;20054;-63
2023/03/02 14:09:58;;;;;;;0.73;0.40;;;;;;;;;;5012263;28;20401;-63
2023/03/02 14:12:32;;;;;;;0.60;0.22;;;;;;;;;;5009757;28;20053;-63
2023/03/02 14:15:03;;;;;;;1.13;0.30;;;;;;;;;;5028413;28;20393;-63
2023/03/02 14:17:34;;;;;;;1.35;0.80;;;;;;;;;;5012275;28;20505;-62
2023/03/02 14:20:05;;;;;;;0.80;0.55;;;;;;;;;;5028450;28;20053;-62
2023/03/02 14:22:35;;;;;;;3.25;0.65;;;;;;;;;;5012259;28;20058;-63
2023/03/02 14:25:06;;;;;;;4.63;0.57;;;;;;;;;;5012022;28;20425;-62
2023/03/02 14:27:36;;;;;;;0.93;0.45;;;;;;;;;;5017435;28;20048;-62
2023/03/02 14:30:16;;;;;;;0.85;0.40;;;;;;;;;;4978527;28;20056;-63
2023/03/02 14:32:47;;;;;;;1.25;0.47;;;;;;;;;;4975961;28;20065;-63
2023/03/02 14:35:17;;;;;;;1.70;0.50;;;;;;;;;;5008500;28;20046;-63
2023/03/02 14:37:48;;;;;;;1.08;0.40;;;;;;;;;;5008500;28;20086;-61
2023/03/02 14:40:25;;;;;;;4.50;0.60;;;;;;;;;;5008267;28;20577;-62
2023/03/02 14:42:55;;;;;;;0.85;0.45;;;;;;;;;;4952881;28;20498;-62
2023/03/02 14:45:25;;;;;;;1.00;0.40;;;;;;;;;;4938972;28;20418;-62
2023/03/02 14:47:57;;;;;;;2.90;0.45;;;;;;;;;;4972573;28;20403;-62
2023/03/02 14:50:27;;;;;;;0.60;0.40;;;;;;;;;;4956880;28;20442;-60
2023/03/02 14:52:57;;;;;;;1.08;0.60;;;;;;;;;;4941463;28;20054;-60
2023/03/02 14:55:28;;;;;;;1.10;0.47;;;;;;;;;;4972622;28;20466;-60
2023/03/02 14:57:59;;;;;;;1.20;0.50;;;;;;;;;;4956365;28;20057;-60
2023/03/02 15:00:30;;;;;;;4.93;0.70;;;;;;;;;;4971968;28;20503;-62
2023/03/02 15:03:24;;;;;;;0.65;0.50;;;;;;;;;;4966092;28;20047;-61
2023/03/02 15:05:54;;;;;;;1.85;0.40;;;;;;;;;;4957315;28;20407;-61
2023/03/02 15:08:29;;;;;;;2.25;0.50;;;;;;;;;;4958704;28;20054;-61
2023/03/02 15:11:00;;;;;;;0.60;0.47;;;;;;;;;;4991673;28;20046;-62
2023/03/02 15:13:30;;;;;;;2.92;0.43;;;;;;;;;;4991324;28;20054;-61
2023/03/02 15:16:00;;;;;;;1.67;0.70;;;;;;;;;;4971644;28;20047;-63
2023/03/02 15:18:30;;;;;;;0.60;0.47;;;;;;;;;;4972314;28;20059;-61
2023/03/02 15:21:00;;;;;;;1.42;0.50;;;;;;;;;;4992732;28;20526;-61
2023/03/02 15:23:29;;;;;;;2.30;0.50;;;;;;;;;;5016918;28;20402;-64
2023/03/02 15:26:00;;;;;;;1.67;0.63;;;;;;;;;;4943656;28;20452;-62
2023/03/02 15:28:30;;;;;;;0.60;0.60;;;;;;;;;;4991401;28;20506;-62